Terminal Aerodrome Forecast
Issued by NWS Northern Indiana

Home | Current Version | Previous Version | Text Only | Print | Product List | Glossary Off
Versions: 1 2 3 4 5 6 7 8 9 10 11 12 13 14 15 16

635
FTUS43 KIWX 041720
TAFFWA
TAF
KFWA 041720Z 0418/0518 26012KT P6SM -SHSN BKN017 OVC025
     FM041900 27010KT P6SM BKN025
     FM042100 27007KT P6SM SCT030
     FM050200 23004KT P6SM SCT050 BKN100=

USA.gov is the U.S. government's official web portal to all federal, state and local government web resources and services.